LFOP/URO METAR and TAF weather

Enter ICAO airport designator
Station Type Date Time Source
LFOP METAR 2018/12/11 21:00 UTC NOAA

LFOP 112100Z AUTO 11006KT 4000 BR FEW042 02/01 Q1023 TEMPO 0500 FG VV///


Station Type Date Time Source
LFOP Decoded METAR 2018/12/11 21:00 UTC NOAA

Rouen, France (LFOP) 49-23N 001-11E 157M
Dec 11, 2018 - 04:00 PM EST / 2018.12.11 2100 UTC
Wind: from the ESE (110 degrees) at 7 MPH (6 KT):0
Visibility: 2 mile(s):0
Sky conditions: mostly clear
Weather: mist
Temperature: 35 F (2 C)
Windchill: 28 F (-2 C):1
Dew Point: 33 F (1 C)
Relative Humidity: 93%
Pressure (altimeter): 30.21 in. Hg (1023 hPa)
ob: LFOP 112100Z AUTO 11006KT 4000 BR FEW042 02/01 Q1023 TEMPO 0500 FG VV///
cycle: 21

Station Type Date Time Source
LFOP TAF 2018/12/11 18:21 UTC NOAA

TAF LFOP 111700Z 1118/1218 15006KT CAVOK
BECMG 1120/1122 3000 BR OVC003
TEMPO 1122/1208 0500 FG VV///
BECMG 1208/1211 6000 NSW BKN007
BECMG 1213/1215 09010KT BKN013


Example: see airport list